Time;durP1;ratioP1;P1;durP2;ratioP2;P2;SDS_P1;SDS_P2;PMS_P1;PMS_P2;Temp;Humidity;BMP_temperature;BMP_pressure;BME280_temperature;BME280_humidity;BME280_pressure;Samples;Min_cycle;Max_cycle;Signal;HPM_P1;HPM_P2
2023/04/27 00:00:16;;;;;;;;;11.40;10.60;;;;;4.77;40.91;99413.50;5054615;28;8871;-77
2023/04/27 00:03:06;;;;;;;;;12.20;10.80;;;;;4.85;40.75;99406.59;5088415;28;8862;-77
2023/04/27 00:05:37;;;;;;;;;6.00;6.00;;;;;5.11;40.54;99405.69;5039042;28;8839;-78
2023/04/27 00:08:07;;;;;;;;;11.80;11.40;;;;;5.24;39.85;99412.63;5089532;28;8902;-76
2023/04/27 00:10:36;;;;;;;;;11.60;8.60;;;;;5.40;39.84;99407.44;5089963;28;8863;-76
2023/04/27 00:13:05;;;;;;;;;10.60;9.00;;;;;5.29;40.01;99413.47;5088863;28;8851;-76
2023/04/27 00:15:34;;;;;;;;;11.40;9.00;;;;;5.42;39.69;99410.91;5105528;28;8836;-77
2023/04/27 00:18:03;;;;;;;;;10.20;9.00;;;;;5.51;39.26;99403.94;5090026;28;8855;-76
2023/04/27 00:20:33;;;;;;;;;10.80;9.60;;;;;5.54;39.52;99403.03;5088508;28;8855;-76
2023/04/27 00:23:02;;;;;;;;;9.20;9.20;;;;;5.63;39.09;99397.78;5104968;27;8855;-76
2023/04/27 00:25:31;;;;;;;;;11.40;10.40;;;;;5.66;39.05;99399.50;5090937;28;8836;-76
2023/04/27 00:27:59;;;;;;;;;10.60;9.20;;;;;5.45;39.75;99403.94;5094825;28;8893;-76
2023/04/27 00:30:28;;;;;;;;;12.80;12.80;;;;;5.26;39.92;99407.41;5055476;28;8836;-77
2023/04/27 00:32:57;;;;;;;;;11.80;9.60;;;;;5.32;39.91;99399.59;5053663;28;8864;-79
2023/04/27 00:35:26;;;;;;;;;14.00;12.00;;;;;5.08;40.55;99409.16;5088906;28;8894;-77
2023/04/27 00:37:56;;;;;;;;;9.40;8.80;;;;;5.12;40.42;99408.28;5071153;28;8866;-77
2023/04/27 00:40:25;;;;;;;;;11.60;10.20;;;;;5.17;40.23;99404.81;5071390;28;8847;-79
2023/04/27 00:42:54;;;;;;;;;12.20;12.20;;;;;5.12;40.03;99405.69;5104853;28;8856;-77
2023/04/27 00:45:23;;;;;;;;;8.20;8.20;;;;;5.13;39.99;99412.66;5088215;28;8862;-77
2023/04/27 00:47:51;;;;;;;;;11.80;11.40;;;;;5.22;40.17;99406.53;5087865;28;8848;-76
2023/04/27 00:50:27;;;;;;;;;11.40;11.40;;;;;5.46;39.54;99413.47;5121485;27;8840;-77
2023/04/27 00:52:57;;;;;;;;;11.60;9.80;;;;;5.38;39.41;99406.53;5103312;28;8868;-76
2023/04/27 00:55:26;;;;;;;;;15.20;11.20;;;;;5.11;40.30;99410.88;5087718;28;8871;-77
2023/04/27 00:57:55;;;;;;;;;10.60;10.60;;;;;5.23;39.99;99410.03;5071149;28;8882;-76
2023/04/27 01:00:25;;;;;;;;;11.40;9.80;;;;;5.03;40.61;99416.13;5104624;28;8844;-77
2023/04/27 01:02:55;;;;;;;;;10.20;10.20;;;;;5.25;40.06;99409.16;5038617;28;8874;-75
2023/04/27 01:05:26;;;;;;;;;7.60;6.60;;;;;4.99;40.36;99411.78;5121889;27;8859;-76
2023/04/27 01:07:56;;;;;;;;;11.60;10.00;;;;;5.06;40.45;99415.25;5051735;28;8889;-76
2023/04/27 01:10:28;;;;;;;;;12.20;10.60;;;;;5.26;39.96;99415.22;5104694;28;8867;-76
2023/04/27 01:12:57;;;;;;;;;11.20;9.60;;;;;4.98;40.30;99416.97;5121164;27;8988;-77
2023/04/27 01:15:26;;;;;;;;;12.20;11.00;;;;;4.78;40.60;99423.06;5087279;28;8920;-77
2023/04/27 01:17:58;;;;;;;;;9.80;9.80;;;;;4.64;40.95;99420.47;5087395;28;8856;-75
2023/04/27 01:20:29;;;;;;;;;8.40;8.40;;;;;4.73;40.96;99430.88;5088465;28;8904;-76
2023/04/27 01:23:00;;;;;;;;;11.80;10.60;;;;;4.50;41.23;99423.03;5035858;28;8828;-76
2023/04/27 01:25:30;;;;;;;;;12.40;11.00;;;;;4.79;41.09;99423.94;5070029;28;9627;-76
2023/04/27 01:28:03;;;;;;;;;12.40;10.60;;;;;4.68;41.06;99429.16;5038518;28;8860;-76
2023/04/27 01:30:32;;;;;;;;;10.60;10.00;;;;;4.54;41.10;99431.72;5087306;28;8873;-76
2023/04/27 01:33:00;;;;;;;;;14.00;10.40;;;;;4.35;41.68;99430.81;5061665;28;8864;-75
2023/04/27 01:35:30;;;;;;;;;11.00;7.80;;;;;4.69;41.12;99426.50;5070315;28;8990;-76
2023/04/27 01:38:01;;;;;;;;;10.60;10.60;;;;;4.36;41.69;99430.81;5085953;28;8859;-77
2023/04/27 01:40:31;;;;;;;;;8.20;8.20;;;;;4.51;41.46;99429.13;5086550;28;9601;-77
2023/04/27 01:43:00;;;;;;;;;11.80;11.80;;;;;4.45;41.78;99423.88;5070138;28;8859;-76
2023/04/27 01:45:30;;;;;;;;;9.60;9.60;;;;;4.47;41.75;99430.84;5086480;28;8847;-77
2023/04/27 01:48:00;;;;;;;;;8.60;8.60;;;;;4.32;42.18;99436.88;5070068;28;8940;-76
2023/04/27 01:50:29;;;;;;;;;12.80;10.60;;;;;4.58;41.16;99443.84;5086368;28;8847;-75
2023/04/27 01:52:58;;;;;;;;;11.40;10.00;;;;;4.33;42.00;99432.53;5034756;28;8840;-79
2023/04/27 01:55:30;;;;;;;;;13.00;11.60;;;;;4.40;41.65;99436.03;5086550;28;8840;-76
2023/04/27 01:57:59;;;;;;;;;8.40;8.40;;;;;4.61;41.57;99432.59;5086859;28;8859;-77
2023/04/27 02:00:28;;;;;;;;;12.80;11.20;;;;;4.48;41.96;99434.31;5086691;28;8840;-76
2023/04/27 02:02:59;;;;;;;;;11.20;10.40;;;;;4.22;42.01;99444.63;5045352;28;9722;-78
2023/04/27 02:05:29;;;;;;;;;10.40;10.40;;;;;4.13;42.63;99441.16;4979834;28;8879;-76
2023/04/27 02:07:57;;;;;;;;;15.00;12.80;;;;;4.01;42.40;99442.84;4987043;28;9847;-77
2023/04/27 02:10:27;;;;;;;;;18.80;15.20;;;;;4.15;42.11;99439.44;5024973;28;8873;-75
2023/04/27 02:12:59;;;;;;;;;12.20;10.80;;;;;4.21;42.71;99442.91;5025095;28;8853;-76
2023/04/27 02:15:28;;;;;;;;;10.80;10.80;;;;;4.09;42.62;99448.91;4975743;28;8933;-76
2023/04/27 02:17:57;;;;;;;;;11.20;10.00;;;;;3.88;43.70;99449.69;5008148;28;8931;-76
2023/04/27 02:20:26;;;;;;;;;13.20;13.20;;;;;3.69;43.42;99444.41;5038232;28;8884;-76
2023/04/27 02:22:55;;;;;;;;;6.60;6.60;;;;;3.64;44.09;99445.25;5035950;28;8847;-79
2023/04/27 02:25:27;;;;;;;;;13.80;12.20;;;;;3.76;44.23;99447.91;5028282;28;8843;-75
2023/04/27 02:27:56;;;;;;;;;14.60;14.40;;;;;3.66;44.32;99447.00;5024650;28;8846;-75
2023/04/27 02:30:27;;;;;;;;;10.80;10.80;;;;;3.66;44.54;99453.91;5008640;28;8838;-75
2023/04/27 02:32:59;;;;;;;;;14.20;12.00;;;;;3.63;44.89;99453.91;5024808;28;8939;-75
2023/04/27 02:35:28;;;;;;;;;15.60;12.00;;;;;3.69;44.77;99456.53;5008605;28;9000;-76
2023/04/27 02:38:00;;;;;;;;;12.60;12.60;;;;;3.98;43.60;99448.91;5052985;28;8859;-75
2023/04/27 02:40:29;;;;;;;;;12.00;11.00;;;;;4.01;43.88;99464.50;5063868;28;8869;-73
2023/04/27 02:42:58;;;;;;;;;14.40;11.20;;;;;4.11;43.45;99462.81;5086824;28;8854;-77
2023/04/27 02:45:28;;;;;;;;;12.00;12.00;;;;;4.02;43.43;99458.44;5076176;28;8907;-77
2023/04/27 02:47:58;;;;;;;;;14.40;14.20;;;;;4.33;42.96;99461.16;5090573;28;8976;-76
2023/04/27 02:50:28;;;;;;;;;14.60;13.40;;;;;4.40;42.78;99457.72;5070475;28;8861;-76
2023/04/27 02:52:56;;;;;;;;;13.80;11.60;;;;;4.64;42.12;99459.50;5072505;28;8832;-75
2023/04/27 02:55:26;;;;;;;;;11.40;9.20;;;;;4.93;41.63;99463.88;5086384;28;8852;-76
2023/04/27 02:57:55;;;;;;;;;12.80;11.00;;;;;5.13;40.94;99469.97;5085923;28;8847;-76
2023/04/27 03:00:25;;;;;;;;;10.40;10.40;;;;;5.28;40.91;99471.72;5069120;28;8840;-75
2023/04/27 03:02:55;;;;;;;;;14.60;13.80;;;;;5.34;40.79;99473.47;5085875;28;8859;-76
2023/04/27 03:05:27;;;;;;;;;11.20;11.00;;;;;5.56;40.59;99466.47;5086941;28;8856;-75
2023/04/27 03:07:55;;;;;;;;;17.00;15.40;;;;;5.71;40.43;99469.03;5086303;28;8880;-76
2023/04/27 03:10:25;;;;;;;;;17.60;15.00;;;;;5.86;40.51;99456.84;5087500;28;8831;-75
2023/04/27 03:12:54;;;;;;;;;16.20;16.20;;;;;5.97;39.98;99467.25;5085047;28;8901;-76
2023/04/27 03:15:23;;;;;;;;;15.60;15.20;;;;;5.83;40.01;99469.88;5106670;28;8986;-76
2023/04/27 03:17:52;;;;;;;;;12.60;12.60;;;;;5.75;40.24;99469.06;5089406;28;8886;-76
2023/04/27 03:20:23;;;;;;;;;15.20;12.60;;;;;5.83;39.89;99475.09;5089827;28;8831;-76
2023/04/27 03:22:54;;;;;;;;;12.20;12.20;;;;;5.70;40.39;99469.06;5089646;28;8879;-75
2023/04/27 03:25:23;;;;;;;;;19.80;17.00;;;;;5.51;40.61;99469.09;5089562;28;8938;-76
2023/04/27 03:27:52;;;;;;;;;16.40;16.40;;;;;5.75;40.28;99475.13;5072220;28;8855;-78
2023/04/27 03:30:23;;;;;;;;;17.00;16.60;;;;;5.89;40.21;99475.09;5055574;28;8880;-76
2023/04/27 03:32:51;;;;;;;;;17.00;15.80;;;;;5.81;40.16;99482.06;5090983;28;8842;-76
2023/04/27 03:35:20;;;;;;;;;24.25;24.00;;;;;5.48;40.77;99476.91;5071791;28;8843;-76
2023/04/27 03:37:50;;;;;;;;;19.50;16.75;;;;;5.76;40.42;99478.63;5049726;28;9061;-75
2023/04/27 03:40:19;;;;;;;;;20.75;18.75;;;;;5.90;40.03;99479.44;5067892;28;8852;-74
2023/04/27 03:42:48;;;;;;;;;18.60;17.60;;;;;5.99;39.98;99475.94;5050670;28;8984;-76
2023/04/27 03:45:18;;;;;;;;;12.00;12.00;;;;;5.48;40.77;99481.28;5067126;28;8976;-76
2023/04/27 03:47:46;;;;;;;;;23.20;21.40;;;;;5.65;40.64;99481.25;5067751;28;8848;-75
2023/04/27 03:50:16;;;;;;;;;27.20;25.20;;;;;5.85;40.35;99489.00;5067665;28;8926;-75
2023/04/27 03:52:45;;;;;;;;;20.80;18.60;;;;;5.98;40.54;99495.94;5042153;28;8864;-76
2023/04/27 03:55:15;;;;;;;;;18.40;18.40;;;;;6.14;39.99;99499.38;5050940;28;8852;-75
2023/04/27 03:57:45;;;;;;;;;21.75;20.50;;;;;6.19;39.65;99495.00;5050365;28;8944;-76
2023/04/27 04:00:15;;;;;;;;;95.25;74.50;;;;;6.21;40.04;99495.88;5000206;28;8970;-76
2023/04/27 04:02:44;;;;;;;;;23.50;23.50;;;;;5.31;41.10;99491.72;5083808;28;9499;-76
2023/04/27 04:05:14;;;;;;;;;27.40;25.00;;;;;5.72;40.27;99491.66;5066655;28;9663;-76
2023/04/27 04:07:43;;;;;;;;;19.80;18.00;;;;;5.83;40.44;99499.47;5049313;28;8840;-75
2023/04/27 04:10:13;;;;;;;;;22.40;22.00;;;;;5.87;39.96;99508.16;5087443;28;8858;-77
2023/04/27 04:12:43;;;;;;;;;16.00;15.20;;;;;5.21;41.18;99513.38;5088588;28;8887;-75
2023/04/27 04:15:12;;;;;;;;;17.20;15.80;;;;;5.56;40.78;99518.63;5071526;28;9600;-76
2023/04/27 04:17:41;;;;;;;;;20.40;19.80;;;;;5.68;40.61;99515.13;5053906;28;8883;-75
2023/04/27 04:20:11;;;;;;;;;16.80;15.40;;;;;6.01;40.45;99522.03;5121828;27;8894;-76
2023/04/27 04:22:40;;;;;;;;;41.00;36.75;;;;;6.35;39.82;99526.28;5037103;28;8839;-78
2023/04/27 04:25:09;;;;;;;;;20.75;20.75;;;;;5.74;40.85;99528.19;5088007;28;8840;-76
2023/04/27 04:27:38;;;;;;;;;21.80;19.20;;;;;6.03;40.13;99529.84;5105107;28;8852;-78
2023/04/27 04:30:09;;;;;;;;;16.20;16.20;;;;;6.31;40.22;99526.28;5123774;27;8851;-77
2023/04/27 04:32:39;;;;;;;;;21.20;18.40;;;;;5.95;40.37;99529.88;5100818;28;8950;-77
2023/04/27 04:35:08;;;;;;;;;17.00;16.60;;;;;5.84;40.38;99529.03;5078495;28;8865;-76
2023/04/27 04:37:37;;;;;;;;;30.50;27.25;;;;;6.29;40.20;99533.25;5064699;28;8891;-75
2023/04/27 04:40:09;;;;;;;;;44.25;36.25;;;;;6.63;39.87;99538.31;5070755;28;8847;-76
2023/04/27 04:42:39;;;;;;;;;25.00;24.00;;;;;6.65;39.00;99543.53;5121466;27;8843;-76
2023/04/27 04:45:11;;;;;;;;;27.50;22.25;;;;;6.01;40.25;99542.91;5005455;28;8855;-77
2023/04/27 04:47:40;;;;;;;;;13.50;12.25;;;;;6.15;39.91;99545.47;5069236;28;8946;-78
2023/04/27 04:50:12;;;;;;;;;25.75;22.00;;;;;5.74;40.85;99546.44;5085959;28;8862;-76
2023/04/27 04:52:41;;;;;;;;;21.00;18.50;;;;;5.20;41.92;99556.81;5076855;28;8872;-76
2023/04/27 04:55:10;;;;;;;;;21.50;20.00;;;;;5.54;41.75;99551.66;5065796;28;8960;-75
2023/04/27 04:57:39;;;;;;;;;16.75;16.75;;;;;5.54;41.87;99549.91;5047023;28;9630;-78
2023/04/27 05:00:12;;;;;;;;;24.00;22.00;;;;;5.84;41.32;99552.50;5065404;28;8958;-76
2023/04/27 05:02:41;;;;;;;;;23.75;22.25;;;;;5.81;41.18;99552.50;5000199;28;8844;-78
2023/04/27 05:05:10;;;;;;;;;21.00;20.75;;;;;6.24;40.60;99558.47;5063127;28;8898;-75
2023/04/27 05:07:39;;;;;;;;;37.75;32.50;;;;;5.73;41.94;99570.75;5082114;28;8956;-77
2023/04/27 05:10:09;;;;;;;;;23.50;22.00;;;;;6.28;40.96;99554.97;5049390;28;8860;-77
2023/04/27 05:12:37;;;;;;;;;24.50;20.75;;;;;6.52;40.00;99559.25;5065617;28;8976;-76
2023/04/27 05:15:07;;;;;;;;;22.25;20.75;;;;;6.86;40.13;99553.00;5010534;28;8852;-76
2023/04/27 05:17:37;;;;;;;;;23.50;21.25;;;;;6.68;39.49;99559.19;5025045;28;8907;-76
2023/04/27 05:20:08;;;;;;;;;23.25;22.00;;;;;6.63;39.82;99563.56;5041941;28;8876;-77
2023/04/27 05:22:37;;;;;;;;;27.00;25.00;;;;;5.56;42.10;99572.50;5024400;28;8937;-78
2023/04/27 05:25:07;;;;;;;;;23.75;23.25;;;;;5.67;42.32;99576.84;5015011;28;9080;-75
2023/04/27 05:27:35;;;;;;;;;26.25;23.50;;;;;6.16;41.02;99583.75;5032176;28;8941;-77
2023/04/27 05:30:05;;;;;;;;;25.50;22.50;;;;;5.49;43.85;99590.78;5048719;28;8987;-73
2023/04/27 05:32:36;;;;;;;;;26.50;24.25;;;;;5.47;44.22;99589.91;5028062;28;9075;-76
2023/04/27 05:35:07;;;;;;;;;26.75;26.75;;;;;5.45;43.75;99590.75;5044850;28;8858;-76
2023/04/27 05:37:35;;;;;;;;;21.75;21.25;;;;;5.55;44.77;99587.31;5028350;28;8876;-75
2023/04/27 05:40:08;;;;;;;;;26.75;24.00;;;;;4.94;46.47;99595.84;5028189;28;8858;-74
2023/04/27 05:42:36;;;;;;;;;29.75;25.25;;;;;5.24;45.17;99599.38;4948666;28;8842;-76
2023/04/27 05:45:07;;;;;;;;;28.75;26.00;;;;;5.18;45.13;99594.19;5062205;28;8838;-78
2023/04/27 05:47:36;;;;;;;;;22.00;18.75;;;;;5.34;44.29;99602.06;5086790;28;8835;-75
2023/04/27 05:50:07;;;;;;;;;19.00;19.00;;;;;5.73;44.61;99599.44;5103634;28;9577;-77
2023/04/27 05:52:37;;;;;;;;;23.25;22.25;;;;;6.22;42.88;99602.00;5086657;28;8926;-79
2023/04/27 05:55:08;;;;;;;;;17.00;15.75;;;;;6.15;42.59;99605.47;5120668;27;8840;-75
2023/04/27 05:57:36;;;;;;;;;24.50;22.00;;;;;6.64;42.35;99605.34;5070144;28;8852;-78
2023/04/27 06:00:09;;;;;;;;;21.00;20.50;;;;;6.87;41.70;99602.66;5086736;28;9605;-77
2023/04/27 06:02:41;;;;;;;;;25.75;20.50;;;;;7.15;41.54;99597.28;5086157;28;9651;-76
2023/04/27 06:05:12;;;;;;;;;23.00;22.25;;;;;7.29;39.89;99607.66;5120562;27;8836;-77
2023/04/27 06:07:42;;;;;;;;;23.00;22.25;;;;;7.28;40.64;99603.31;5086781;28;8832;-76
2023/04/27 06:10:11;;;;;;;;;24.25;22.00;;;;;7.12;41.12;99602.53;5103802;28;8870;-75
2023/04/27 06:12:40;;;;;;;;;22.50;19.75;;;;;7.21;41.24;99612.06;5103463;28;8852;-76
2023/04/27 06:15:11;;;;;;;;;22.25;20.75;;;;;7.38;41.02;99611.94;5087660;28;8880;-76
2023/04/27 06:17:42;;;;;;;;;20.75;19.75;;;;;7.25;40.85;99616.41;5090169;28;8896;-77
2023/04/27 06:20:13;;;;;;;;;22.75;22.50;;;;;6.06;44.19;99622.06;5081722;28;8955;-75
2023/04/27 06:22:42;;;;;;;;;27.75;26.25;;;;;5.14;46.60;99635.84;5072227;28;8853;-75
2023/04/27 06:25:11;;;;;;;;;24.50;23.50;;;;;4.84;48.31;99635.75;5084451;28;8838;-75
2023/04/27 06:27:39;;;;;;;;;42.50;35.50;;;;;4.88;48.34;99632.28;5067977;28;8966;-77
2023/04/27 06:30:09;;;;;;;;;16.25;16.25;;;;;4.67;48.83;99641.75;5054129;28;8881;-75
2023/04/27 06:32:38;;;;;;;;;29.50;24.50;;;;;4.42;49.79;99650.31;5051298;28;8866;-75
2023/04/27 06:35:07;;;;;;;;;24.75;21.50;;;;;4.43;50.19;99647.69;5084177;28;8841;-75
2023/04/27 06:37:37;;;;;;;;;25.00;21.00;;;;;4.51;50.47;99647.78;5084783;28;8838;-76
2023/04/27 06:40:08;;;;;;;;;26.75;25.25;;;;;4.37;51.09;99652.88;5084291;28;8870;-79
2023/04/27 06:42:37;;;;;;;;;23.50;22.50;;;;;4.67;50.59;99643.50;5078628;28;8854;-76
2023/04/27 06:45:06;;;;;;;;;27.25;26.75;;;;;4.75;50.45;99639.19;5081557;28;8845;-75
2023/04/27 06:47:35;;;;;;;;;31.50;27.75;;;;;4.68;51.36;99653.94;5078937;28;8852;-75
2023/04/27 06:50:05;;;;;;;;;26.50;26.50;;;;;4.59;51.51;99642.59;5071437;28;8841;-79
2023/04/27 06:52:34;;;;;;;;;32.25;29.75;;;;;4.82;51.38;99651.38;5089658;28;8864;-76
2023/04/27 06:55:06;;;;;;;;;32.50;26.50;;;;;5.17;50.39;99642.81;5090226;28;8835;-76
2023/04/27 06:57:35;;;;;;;;;30.00;28.25;;;;;5.13;50.25;99654.06;5092210;28;8974;-76
2023/04/27 07:00:04;;;;;;;;;31.50;28.75;;;;;5.42;49.74;99643.78;5056463;28;8863;-77
2023/04/27 07:02:33;;;;;;;;;32.25;31.00;;;;;5.34;49.90;99646.38;5048236;28;8962;-79
2023/04/27 07:05:02;;;;;;;;;29.00;27.00;;;;;5.42;49.34;99648.13;5005077;28;8906;-79
2023/04/27 07:07:31;;;;;;;;;29.25;25.00;;;;;5.87;48.58;99641.22;5005114;28;8954;-76
2023/04/27 07:10:00;;;;;;;;;28.25;27.50;;;;;6.51;46.79;99640.22;4973558;28;8843;-74
2023/04/27 07:12:30;;;;;;;;;24.25;22.50;;;;;6.50;46.63;99648.94;5004735;28;8852;-81
2023/04/27 07:15:01;;;;;;;;;24.50;23.75;;;;;6.21;47.43;99647.25;5009088;28;8886;-75
2023/04/27 07:17:30;;;;;;;;;30.00;27.50;;;;;6.75;46.23;99641.88;5008382;28;8867;-77
2023/04/27 07:19:59;;;;;;;;;28.25;26.25;;;;;6.57;46.40;99642.81;5008603;28;8868;-75
2023/04/27 07:22:28;;;;;;;;;27.50;24.25;;;;;6.73;46.33;99645.38;4975952;28;9748;-78
2023/04/27 07:24:57;;;;;;;;;26.00;24.50;;;;;7.60;44.38;99636.22;4944492;28;8886;-75
2023/04/27 07:27:26;;;;;;;;;23.25;20.50;;;;;6.85;45.24;99651.44;4991930;28;8852;-75
2023/04/27 07:29:56;;;;;;;;;28.50;27.00;;;;;7.37;44.61;99642.47;4975986;28;8859;-77
2023/04/27 07:32:25;;;;;;;;;26.25;24.75;;;;;8.02;43.01;99641.97;5008467;28;8848;-75
2023/04/27 07:34:55;;;;;;;;;22.25;22.25;;;;;8.15;42.79;99638.34;5033949;28;8838;-76
2023/04/27 07:37:24;;;;;;;;;23.40;23.20;;;;;8.01;42.16;99645.50;5067621;28;8952;-75
2023/04/27 07:39:53;;;;;;;;;22.40;20.60;;;;;7.45;42.46;99648.50;5067768;28;8988;-77
2023/04/27 07:42:22;;;;;;;;;24.75;23.50;;;;;8.06;42.36;99643.69;5029523;28;8871;-77
2023/04/27 07:44:51;;;;;;;;;16.80;16.20;;;;;7.33;44.43;99642.53;5089351;28;8848;-77
2023/04/27 07:47:21;;;;;;;;;28.00;26.40;;;;;7.42;44.06;99651.16;5088457;28;8861;-76
2023/04/27 07:49:51;;;;;;;;;28.00;25.80;;;;;7.68;44.43;99652.72;5090879;28;8848;-77
2023/04/27 07:52:20;;;;;;;;;22.80;21.60;;;;;8.09;43.36;99650.66;5089363;28;8843;-75
2023/04/27 07:54:49;;;;;;;;;29.00;29.00;;;;;8.16;42.32;99652.34;5072237;28;8870;-75
2023/04/27 07:57:18;;;;;;;;;22.00;22.00;;;;;7.86;42.67;99647.34;5089974;28;9636;-75
2023/04/27 07:59:47;;;;;;;;;22.60;20.60;;;;;8.10;41.67;99655.88;5062990;28;8858;-75
2023/04/27 08:02:16;;;;;;;;;22.40;19.00;;;;;7.69;42.24;99657.09;5072418;28;8967;-75
2023/04/27 08:04:50;;;;;;;;;16.20;16.00;;;;;7.88;41.52;99652.56;5056001;28;8846;-73
2023/04/27 08:07:19;;;;;;;;;21.00;17.40;;;;;8.31;39.98;99656.56;5089058;28;8859;-75
2023/04/27 08:09:51;;;;;;;;;18.00;17.00;;;;;8.29;40.72;99653.06;5122935;27;8892;-76
2023/04/27 08:12:19;;;;;;;;;16.00;16.00;;;;;8.38;38.33;99660.88;5089035;28;8873;-74
2023/04/27 08:14:49;;;;;;;;;18.00;15.00;;;;;9.04;37.99;99657.50;5038320;28;8840;-78
2023/04/27 08:17:18;;;;;;;;;20.80;19.20;;;;;8.92;38.26;99655.91;5066916;28;8864;-76
2023/04/27 08:19:46;;;;;;;;;14.60;12.60;;;;;8.10;38.77;99671.59;5067202;28;8852;-75
2023/04/27 08:22:17;;;;;;;;;16.00;16.00;;;;;7.96;39.68;99668.22;5066786;28;8864;-75
2023/04/27 08:24:45;;;;;;;;;13.60;12.60;;;;;7.83;38.53;99672.66;5049959;28;8974;-76
2023/04/27 08:27:14;;;;;;;;;15.40;14.00;;;;;8.57;36.99;99664.16;5049851;28;8917;-75
2023/04/27 08:29:47;;;;;;;;;16.20;14.20;;;;;8.28;37.62;99665.31;5066313;28;8944;-78
2023/04/27 08:32:16;;;;;;;;;11.40;10.20;;;;;8.25;37.78;99667.94;5049888;28;8953;-75
2023/04/27 08:34:45;;;;;;;;;14.20;12.80;;;;;8.56;37.99;99668.53;5067149;28;8855;-76
2023/04/27 08:37:14;;;;;;;;;17.60;15.40;;;;;8.49;38.20;99673.88;5067318;28;8852;-79
2023/04/27 08:39:46;;;;;;;;;12.00;12.00;;;;;8.56;38.42;99667.69;5066695;28;8868;-73
2023/04/27 08:42:15;;;;;;;;;13.80;13.80;;;;;8.44;37.24;99659.06;5066354;28;8914;-76
2023/04/27 08:44:45;;;;;;;;;19.20;16.60;;;;;8.86;37.16;99663.00;5066323;28;8843;-77
2023/04/27 08:47:13;;;;;;;;;20.80;17.60;;;;;8.50;38.39;99673.84;5049662;28;8891;-76
2023/04/27 08:49:42;;;;;;;;;17.00;15.00;;;;;8.78;37.73;99660.44;5033068;28;8958;-76
2023/04/27 08:52:12;;;;;;;;;22.40;19.60;;;;;9.09;37.46;99660.06;5049789;28;8974;-77
2023/04/27 08:54:42;;;;;;;;;19.00;16.60;;;;;8.72;37.77;99655.28;5021734;28;9484;-77
2023/04/27 08:57:14;;;;;;;;;15.00;14.80;;;;;8.67;37.72;99664.94;5068615;28;8846;-78
2023/04/27 08:59:44;;;;;;;;;16.00;16.00;;;;;8.47;38.68;99663.41;5053262;28;8888;-77
2023/04/27 09:02:19;;;;;;;;;15.00;13.60;;;;;8.78;37.03;99660.44;5070149;28;8948;-77
2023/04/27 09:04:49;;;;;;;;;13.20;13.20;;;;;8.87;36.86;99655.09;5066280;28;8943;-76
2023/04/27 09:07:18;;;;;;;;;15.40;13.00;;;;;9.66;35.45;99654.91;5049806;28;8847;-77
2023/04/27 09:09:48;;;;;;;;;13.60;13.20;;;;;10.35;35.03;99640.63;5066373;28;8855;-78
2023/04/27 09:12:21;;;;;;;;;14.20;13.00;;;;;9.28;35.27;99651.06;5067090;28;8852;-75
2023/04/27 09:14:57;;;;;;;;;13.80;12.00;;;;;9.79;34.73;99650.34;5053029;28;8838;-78
2023/04/27 09:17:27;;;;;;;;;11.80;11.80;;;;;9.98;33.46;99653.53;5087050;28;8938;-78
2023/04/27 09:20:07;;;;;;;;;11.00;11.00;;;;;9.85;33.99;99650.22;5029190;28;8862;-75
2023/04/27 09:22:44;;;;;;;;;11.00;10.20;;;;;10.61;33.62;99647.13;5062755;28;8842;-75
2023/04/27 09:25:23;;;;;;;;;16.20;13.00;;;;;9.69;33.91;99638.22;4996514;28;9638;-75
2023/04/27 09:27:53;;;;;;;;;13.20;12.40;;;;;9.44;35.33;99646.44;5029259;28;8834;-77
2023/04/27 09:30:22;;;;;;;;;14.80;14.80;;;;;9.33;35.13;99653.59;5045714;28;8874;-77
2023/04/27 09:32:53;;;;;;;;;13.60;13.00;;;;;9.00;35.52;99651.41;5045741;28;8838;-78
2023/04/27 09:35:24;;;;;;;;;17.00;15.80;;;;;8.84;36.10;99648.13;5029248;28;8861;-75
2023/04/27 09:37:54;;;;;;;;;14.00;12.40;;;;;9.54;35.01;99650.69;5045606;28;8877;-76
2023/04/27 09:40:26;;;;;;;;;13.80;12.20;;;;;10.15;34.93;99642.72;5045352;28;9068;-79
2023/04/27 09:42:59;;;;;;;;;14.40;13.40;;;;;10.66;33.91;99647.91;5030054;28;8837;-77
2023/04/27 09:45:29;;;;;;;;;13.20;13.20;;;;;11.15;32.72;99633.75;5028737;28;8825;-78
2023/04/27 09:47:58;;;;;;;;;13.40;11.40;;;;;11.05;32.41;99632.25;5031074;28;8848;-76
2023/04/27 09:50:27;;;;;;;;;13.00;12.20;;;;;9.23;35.14;99655.50;5058966;28;8838;-74
2023/04/27 09:52:57;;;;;;;;;14.80;13.20;;;;;9.40;35.01;99647.38;5075346;28;8856;-76
2023/04/27 09:55:31;;;;;;;;;19.60;18.20;;;;;9.33;35.57;99657.13;5087289;28;8844;-76
2023/04/27 09:58:24;;;;;;;;;11.00;11.00;;;;;10.08;35.29;99636.69;5068708;28;9038;-74
2023/04/27 10:01:05;;;;;;;;;15.20;14.00;;;;;10.00;34.17;99639.47;5088792;28;8856;-76
2023/04/27 10:03:47;;;;;;;;;14.60;13.20;;;;;10.52;33.88;99648.19;5065256;28;8968;-77
2023/04/27 10:06:49;;;;;;;;;13.60;13.60;;;;;10.74;32.28;99646.00;5075212;28;8856;-79
2023/04/27 10:09:22;;;;;;;;;12.40;11.40;;;;;11.29;32.47;99629.97;5028802;28;9477;-81
2023/04/27 10:11:52;;;;;;;;;12.60;12.60;;;;;11.86;31.71;99637.44;5045148;28;8864;-78
2023/04/27 10:14:24;;;;;;;;;8.40;8.40;;;;;10.44;30.76;99649.22;5028554;28;8936;-79
2023/04/27 10:16:54;;;;;;;;;12.20;11.80;;;;;9.81;32.89;99641.53;5044320;28;8989;-76
2023/04/27 10:19:24;;;;;;;;;13.40;11.80;;;;;10.74;33.05;99643.38;5003702;28;8868;-75
2023/04/27 10:21:55;;;;;;;;;12.60;11.00;;;;;11.46;31.98;99632.19;5025509;28;8919;-77
2023/04/27 10:24:37;;;;;;;;;12.00;11.60;;;;;12.04;29.97;99629.97;5012331;28;9612;-75
2023/04/27 10:27:07;;;;;;;;;12.60;12.00;;;;;11.72;30.36;99631.59;5028661;28;8941;-80
2023/04/27 10:29:39;;;;;;;;;11.00;10.40;;;;;11.85;30.48;99637.47;5028707;28;8894;-76
2023/04/27 10:32:09;;;;;;;;;11.60;11.60;;;;;12.45;29.78;99626.22;5028843;28;8856;-77
2023/04/27 10:34:39;;;;;;;;;13.40;12.40;;;;;12.61;29.10;99621.38;5046075;28;8910;-78
2023/04/27 10:37:09;;;;;;;;;9.80;9.60;;;;;12.89;29.01;99623.25;5073220;28;8830;-78
2023/04/27 10:39:40;;;;;;;;;10.20;10.00;;;;;13.27;28.69;99622.09;5072236;28;8873;-77
2023/04/27 10:42:28;;;;;;;;;19.60;19.20;;;;;13.70;27.50;99625.16;5089608;28;8869;-75
2023/04/27 10:44:58;;;;;;;;;15.60;14.80;;;;;13.50;27.07;99629.28;5072318;28;8858;-78
2023/04/27 10:47:37;;;;;;;;;12.60;11.00;;;;;12.02;27.55;99624.72;5057457;28;8860;-75
2023/04/27 10:50:10;;;;;;;;;8.40;8.00;;;;;12.28;27.78;99628.47;5090224;28;8883;-79
2023/04/27 10:52:42;;;;;;;;;10.40;10.40;;;;;12.74;28.45;99624.53;5091355;28;8844;-75
2023/04/27 10:55:15;;;;;;;;;13.80;11.00;;;;;12.81;28.61;99625.25;5073731;28;9067;-77
2023/04/27 10:57:53;;;;;;;;;8.60;8.00;;;;;13.40;27.57;99612.03;5090303;28;8902;-77
2023/04/27 11:00:27;;;;;;;;;10.00;10.00;;;;;12.71;26.84;99629.88;5073339;28;8874;-76
2023/04/27 11:02:57;;;;;;;;;3.40;3.40;;;;;12.46;27.64;99621.81;5073340;28;8886;-75
2023/04/27 11:05:29;;;;;;;;;8.40;7.60;;;;;13.05;27.67;99614.00;5124265;27;8843;-76
2023/04/27 11:08:05;;;;;;;;;11.00;8.40;;;;;13.17;27.94;99609.25;5090887;28;8872;-77
2023/04/27 11:10:35;;;;;;;;;10.00;8.80;;;;;13.22;28.02;99612.59;5091745;28;8963;-76
2023/04/27 11:13:10;;;;;;;;;8.80;8.80;;;;;13.44;27.90;99607.53;5090119;28;8892;-76
2023/04/27 11:15:48;;;;;;;;;10.40;9.00;;;;;13.24;27.01;99619.56;5089802;28;8955;-76
2023/04/27 11:18:19;;;;;;;;;7.40;6.20;;;;;13.37;26.84;99614.75;5056023;28;8883;-77
2023/04/27 11:20:50;;;;;;;;;8.40;8.40;;;;;13.39;25.84;99618.25;5091203;28;8870;-77
2023/04/27 11:23:27;;;;;;;;;9.00;9.00;;;;;13.64;26.55;99615.66;5073955;28;8844;-76
2023/04/27 11:25:56;;;;;;;;;7.40;6.60;;;;;13.84;26.17;99608.88;5089738;28;8852;-77
2023/04/27 11:28:26;;;;;;;;;5.00;5.00;;;;;13.65;25.70;99608.59;5055710;28;8851;-76
2023/04/27 11:30:59;;;;;;;;;9.80;8.80;;;;;13.17;25.68;99610.13;5090067;28;8881;-79
2023/04/27 11:33:28;;;;;;;;;8.20;8.20;;;;;13.56;26.07;99601.81;5093472;28;8844;-75
2023/04/27 11:35:57;;;;;;;;;9.00;9.00;;;;;14.04;25.65;99605.59;5079601;28;8863;-76
2023/04/27 11:38:33;;;;;;;;;10.60;9.20;;;;;12.66;27.44;99605.44;5089977;28;8989;-75
2023/04/27 11:41:06;;;;;;;;;9.40;8.80;;;;;11.29;28.85;99619.44;5089723;28;8894;-77
2023/04/27 11:43:40;;;;;;;;;9.20;8.60;;;;;11.65;28.81;99622.97;5073145;28;8875;-77
2023/04/27 11:46:11;;;;;;;;;8.80;8.00;;;;;11.29;29.73;99622.06;5089476;28;8852;-76
2023/04/27 11:48:40;;;;;;;;;13.00;10.20;;;;;11.47;29.32;99618.16;5088887;28;8832;-76